Weather observations for the past three days for
Fort Lewis / Gray U. S. Army Airfield
| Date | Time (pdt) | Wind (mph) | Vis. (mi.) | Weather | Sky Cond. | Temperature (ºF) | Relative Humidity | Wind Chill (°F) | Heat Index (°F) | Pressure | Precipitation (in) | ||||||
|---|---|---|---|---|---|---|---|---|---|---|---|---|---|---|---|---|---|
| Air | Dwpt | 6 hour | altimeter (in) | sea level (mb) | 1 hr | 3 hr | 6 hr | ||||||||||
| Max. | Min. | ||||||||||||||||
| 09 | 03:55 | Calm | 10.00 | Fair | CLR | 47.1 | 44.1 | 89% | 30.17 | 1022.0 | |||||||
| 09 | 02:55 | Calm | 10.00 | Mostly Cloudy | BKN037 | 48.6 | 44.8 | 87% | 30.18 | 1022.4 | |||||||
| 09 | 01:55 | Calm | 10.00 | Fair | CLR | 49.6 | 45 | 84% | 30.19 | 1022.7 | |||||||
| 09 | 00:55 | Calm | 10.00 | Mostly Cloudy | BKN050 | 50.7 | 46 | 84% | 30.19 | 1022.8 | |||||||
| 08 | 23:55 | Calm | 10.00 | Mostly Cloudy | FEW032 BKN055 | 51.3 | 45.3 | 80% | 30.19 | 1022.7 | |||||||
| 08 | 22:55 | Calm | 10.00 | Partly Cloudy | SCT060 | 54 | 46.6 | 64.8 | 53.4 | 76% | 30.18 | 1022.4 | |||||
| 08 | 21:55 | Calm | 10.00 | Overcast | OVC060 | 54.7 | 46.2 | 73% | 30.18 | 1022.4 | |||||||
| 08 | 20:55 | W 7 | 10.00 | A Few Clouds | FEW065 | 55.8 | 46 | 70% | 30.17 | 1022.1 | |||||||
| 08 | 19:55 | W 8 | 10.00 | Overcast | BKN032 OVC070 | 58.8 | 45.9 | 62% | 30.15 | 1021.4 | |||||||
| 08 | 18:55 | SW 8 | 10.00 | Mostly Cloudy | BKN037 | 61.9 | 45 | 54% | 30.14 | 1021.0 | |||||||
| 08 | 17:55 | S 7 | 10.00 | Overcast | BKN040 OVC075 | 62.1 | 43.2 | 50% | 30.15 | 1021.4 | |||||||
| 08 | 16:55 | S 9 | 10.00 | Overcast | OVC041 | 64.6 | 43.9 | 65.5 | 55 | 47% | 30.14 | 1021.0 | |||||
| 08 | 15:55 | S 15 | 10.00 | Mostly Cloudy | BKN042 | 64.2 | 42.4 | 45% | 30.14 | 1021.0 | |||||||
| 08 | 14:55 | S 13 | 10.00 | Overcast | BKN042 OVC085 | 62.8 | 40.5 | 44% | 30.14 | 1021.0 | |||||||
| 08 | 13:55 | S 9 | 10.00 | Overcast | SCT038 OVC090 | 61.2 | 41.4 | 48% | 30.14 | 1021.1 | |||||||
| 08 | 12:55 | S 12 | 10.00 | Overcast | OVC034 | 58.3 | 41.7 | 54% | 30.14 | 1021.0 | |||||||
| 08 | 11:55 | S 10 G 20 | 10.00 | Overcast | OVC033 | 57.6 | 40.6 | 53% | 30.14 | 1021.0 | |||||||
| 08 | 10:55 | S 14 | 10.00 | Overcast | OVC031 | 55.4 | 41.4 | 55.6 | 48.4 | 59% | 30.13 | 1020.7 | |||||
| 08 | 09:55 | S 15 | 10.00 | Overcast | OVC026 | 53.8 | 41 | 62% | 30.11 | 1020.0 | |||||||
| 08 | 08:55 | SE 9 | 10.00 | Mostly Cloudy | FEW021 SCT029 BKN190 BKN210 | 53.2 | 42.6 | 67% | 30.08 | 1019.0 | |||||||
| 08 | 07:55 | S 6 | 10.00 | Mostly Cloudy | BKN031 | 51.6 | 43.5 | 74% | 30.09 | 1019.3 | |||||||
| 08 | 06:55 | S 7 | 10.00 | Mostly Cloudy | BKN028 | 48.9 | 43 | 80% | 46 | 30.07 | 1018.6 | ||||||
| 08 | 05:55 | S 6 | 10.00 | Partly Cloudy | SCT200 | 48.9 | 43.7 | 82% | 47 | 30.04 | 1017.6 | ||||||
| 08 | 04:55 | Calm | 10.00 | Mostly Cloudy | BKN190 | 49.3 | 43.7 | 55.4 | 46.8 | 81% | 30.03 | 1017.3 | |||||
| 08 | 03:55 | SE 3 | 10.00 | Fair | CLR | 47.7 | 43.3 | 85% | 30.02 | 1016.9 | |||||||
| 08 | 02:55 | Calm | 10.00 | Mostly Cloudy | BKN190 | 48.9 | 44.1 | 83% | 30 | 1016.3 | |||||||
| 08 | 01:55 | SE 3 | 10.00 | Partly Cloudy | SCT200 | 47.1 | 43.2 | 86% | 30 | 1016.3 | |||||||
| 08 | 00:55 | Calm | 10.00 | Partly Cloudy | SCT200 | 52.9 | 45.1 | 75% | 30 | 1016.2 | |||||||
| 07 | 23:55 | Calm | 10.00 | A Few Clouds | FEW220 | 53.8 | 45.3 | 73% | 30 | 1016.3 | |||||||
| 07 | 22:55 | SW 5 | 10.00 | Fair | CLR | 55.2 | 46.4 | 66 | 54.7 | 72% | 30 | 1016.3 | |||||
| 07 | 21:55 | SW 6 | 10.00 | Fair | CLR | 56.5 | 44.8 | 65% | 30 | 1016.3 | |||||||
| 07 | 20:55 | NE 3 | 10.00 | Fair | CLR | 59 | 44.6 | 59% | 29.99 | 1015.9 | |||||||
| 07 | 19:55 | Calm | 10.00 | Fair | CLR | 63.9 | 42.6 | 46% | 29.99 | 1015.9 | |||||||
| 07 | 18:55 | SW 5 | 10.00 | Fair | CLR | 64.4 | 43.7 | 47% | 30 | 1016.3 | |||||||
| 07 | 17:55 | W 3 | 10.00 | Fair | CLR | 64.9 | 43.2 | 45% | 30.02 | 1016.9 | |||||||
| 07 | 16:55 | W 7 | 10.00 | Fair | CLR | 65.3 | 44.1 | 66.2 | 56.8 | 46% | 30.03 | 1017.3 | |||||
| 07 | 15:55 | W 6 | 10.00 | A Few Clouds | FEW190 | 65.1 | 44.4 | 47% | 30.04 | 1017.6 | |||||||
| 07 | 14:55 | W 6 | 10.00 | A Few Clouds | FEW190 | 65.5 | 44.1 | 46% | 30.05 | 1017.9 | |||||||
| 07 | 13:55 | Calm | 10.00 | A Few Clouds | FEW038 FEW190 | 62.2 | 43.3 | 50% | 30.07 | 1018.6 | |||||||
| 07 | 12:55 | W 6 | 10.00 | Mostly Cloudy | BKN037 | 63.3 | 44.4 | 50% | 30.09 | 1019.3 | |||||||
| 07 | 11:55 | Calm | 10.00 | Overcast | OVC034 | 60.1 | 43.3 | 54% | 30.1 | 1019.6 | |||||||
| 07 | 10:55 | Calm | 10.00 | Overcast | OVC032 | 56.7 | 42.1 | 57.2 | 49.8 | 58% | 30.11 | 1020.0 | |||||
| 07 | 09:55 | E 5 | 10.00 | Overcast | SCT023 OVC031 | 56.3 | 43.9 | 63% | 30.11 | 1020.0 | |||||||
| 07 | 08:55 | Calm | 10.00 | Overcast | OVC033 | 54 | 45.1 | 72% | 30.12 | 1020.3 | |||||||
| 07 | 07:55 | SE 3 | 10.00 | Overcast | OVC016 | 51.1 | 43.5 | 75% | 30.13 | 1020.7 | |||||||
| 07 | 06:55 | E 5 | 10.00 | Overcast | OVC015 | 50.7 | 43.7 | 77% | 30.12 | 1020.4 | |||||||
| 07 | 05:55 | E 5 | 10.00 | Overcast | BKN016 OVC027 | 50.2 | 43.5 | 78% | 30.11 | 1020.0 | |||||||
| 07 | 04:55 | E 6 | 10.00 | Overcast | OVC018 | 50.7 | 43.5 | 54.7 | 50.5 | 76% | 30.12 | 1020.3 | |||||
| 07 | 03:55 | E 5 | 10.00 | Overcast | OVC020 | 50.9 | 43.5 | 76% | 30.13 | 1020.7 | |||||||
| 07 | 02:55 | E 6 | 10.00 | Overcast | OVC032 | 51.6 | 43.5 | 74% | 30.12 | 1020.3 | |||||||
| 07 | 01:55 | SE 7 | 10.00 | Overcast | OVC030 | 53.1 | 43.9 | 71% | 30.13 | 1020.7 | |||||||
| 07 | 00:55 | SE 6 | 10.00 | Overcast | OVC028 | 53.6 | 43.7 | 69% | 30.14 | 1021.0 | |||||||
| 06 | 23:55 | SE 5 | 10.00 | Overcast | OVC024 | 53.8 | 45 | 72% | 30.13 | 1020.7 | |||||||
| 06 | 22:55 | SE 8 | 10.00 | Overcast | SCT013 OVC021 | 54.5 | 45.7 | 60.6 | 54.1 | 72% | 30.13 | 1020.7 | |||||
| 06 | 21:55 | S 8 | 10.00 | Overcast | SCT013 OVC019 | 55.4 | 47.3 | 74% | 30.13 | 1020.7 | |||||||
| 06 | 19:55 | SE 8 | 10.00 | Overcast | OVC026 | 56.8 | 47.5 | 71% | 30.11 | 1020.0 | |||||||
| 06 | 18:55 | S 8 | 10.00 | Overcast | OVC026 | 58.3 | 46.9 | 66% | 30.11 | 1020.0 | |||||||
| 06 | 17:55 | S 10 | 10.00 | Overcast | OVC029 | 59.5 | 47.3 | 64% | 30.11 | 1020.0 | |||||||
| 06 | 16:55 | S 10 | 10.00 | Overcast | OVC027 | 60.1 | 47.5 | 62.1 | 56.8 | 63% | 30.11 | 1020.0 | |||||
| 06 | 15:55 | S 13 | 10.00 | Overcast | OVC028 | 61.5 | 47.1 | 59% | 30.11 | 1020.0 | |||||||
| 06 | 14:55 | S 12 | 10.00 | Overcast | OVC027 | 60.6 | 47.1 | 61% | 30.12 | 1020.3 | |||||||
| 06 | 13:55 | S 14 | 10.00 | Overcast | OVC026 | 60.6 | 46.6 | 60% | 30.12 | 1020.3 | |||||||
| 06 | 12:55 | S 12 G 21 | 10.00 | Overcast | OVC021 | 58.5 | 46.8 | 65% | 30.11 | 1020.0 | |||||||
| 06 | 11:55 | S 8 | 10.00 | Overcast | OVC017 | 57.7 | 48 | 70% | 30.11 | 1020.0 | |||||||
| 06 | 10:55 | S 7 | 10.00 | Overcast | OVC014 | 56.7 | 48.7 | 57 | 51.8 | 75% | 30.11 | 1020.0 | |||||
| 06 | 09:55 | S 7 | 10.00 | Overcast | OVC008 | 54.5 | 48.7 | 81% | 30.11 | 1020.0 | |||||||
| 06 | 08:55 | S 6 | 10.00 | Overcast | OVC008 | 53.8 | 49.1 | 84% | 30.09 | 1019.3 | |||||||
| 06 | 07:55 | S 7 | 10.00 | Overcast | OVC008 | 52 | 48.2 | 87% | 30.09 | 1019.3 | |||||||
| 06 | 06:55 | S 6 | 9.00 | Overcast | OVC007 | 52.7 | 49.5 | 89% | 30.08 | 1018.9 | |||||||
| 06 | 05:55 | S 5 | 6.00 | Fog/Mist | OVC007 | 52.3 | 49.1 | 89% | 30.07 | 1018.6 | |||||||
| 06 | 04:55 | SE 6 | 10.00 | Overcast | OVC008 | 52.3 | 48.9 | 56.5 | 51.3 | 88% | 30.06 | 1018.3 | |||||
| Date | Time (pdt) | Wind (mph) | Vis. (mi.) | Weather | Sky Cond. | Air | Dwpt | Max. | Min. | Relative Humidity | Wind Chill (°F) | Heat Index (°F) | altimeter (in) | sea level (mb) | 1 hr | 3 hr | 6 hr |
| 6 hour | |||||||||||||||||
| Temperature (ºF) | Pressure | Precipitation (in) | |||||||||||||||